createdAt,value
2017-12-24T08:04:28.053Z,5.40
2017-12-24T08:06:57.093Z,5.70
2017-12-24T08:09:28.582Z,5.50
2017-12-24T08:11:57.626Z,5.17
2017-12-24T08:14:25.652Z,5.13
2017-12-24T08:16:55.976Z,5.00
2017-12-24T08:19:24.132Z,6.00
2017-12-24T08:21:54.202Z,5.87
2017-12-24T08:30:23.577Z,4.97
2017-12-24T08:32:52.760Z,5.63
2017-12-24T08:35:20.816Z,5.40
2017-12-24T08:37:49.247Z,4.93
2017-12-24T08:40:17.943Z,5.77
2017-12-24T08:42:46.596Z,5.63
2017-12-24T08:45:14.462Z,6.07
2017-12-24T08:47:44.130Z,5.40
2017-12-24T08:50:12.076Z,4.90
2017-12-24T08:52:40.647Z,5.40
2017-12-24T08:55:09.271Z,5.17
2017-12-24T08:57:38.601Z,5.50
2017-12-24T09:00:07.866Z,5.53
2017-12-24T09:02:36.541Z,5.80
2017-12-24T09:05:08.357Z,6.70
2017-12-24T09:07:43.844Z,6.17
2017-12-24T09:10:12.920Z,5.77
2017-12-24T09:12:42.982Z,7.10
2017-12-24T09:15:12.739Z,6.40
2017-12-24T09:17:41.147Z,6.77
2017-12-24T09:23:02.631Z,7.40
2017-12-24T09:28:19.306Z,5.73
2017-12-24T09:30:55.309Z,6.70
2017-12-24T09:33:33.747Z,5.90
2017-12-24T09:36:09.161Z,5.40
2017-12-24T09:41:34.328Z,5.80
2017-12-24T09:44:02.896Z,6.30
2017-12-24T09:46:32.198Z,6.07
2017-12-24T09:49:01.508Z,7.20
2017-12-24T09:51:29.926Z,7.33
2017-12-24T09:53:58.855Z,6.60
2017-12-24T09:56:28.027Z,6.07
2017-12-24T09:58:56.418Z,6.87
2017-12-24T10:01:25.936Z,8.67
2017-12-24T10:04:04.616Z,8.67
2017-12-24T10:09:17.503Z,8.97
2017-12-24T10:11:46.149Z,8.50
2017-12-24T10:14:13.953Z,6.70
2017-12-24T10:16:41.820Z,6.43
2017-12-24T10:19:09.585Z,7.10
2017-12-24T10:21:37.430Z,7.53
2017-12-24T10:24:05.242Z,7.37
2017-12-24T10:26:33.851Z,7.17
2017-12-24T10:29:01.699Z,7.87
2017-12-24T10:31:29.730Z,8.33
2017-12-24T10:33:57.784Z,9.77
2017-12-24T10:36:25.682Z,9.67
2017-12-24T10:38:53.536Z,10.30
2017-12-24T10:41:21.352Z,10.40
2017-12-24T10:43:49.654Z,11.53
2017-12-24T10:46:17.945Z,10.23
2017-12-24T10:48:45.710Z,10.43
2017-12-24T10:51:13.576Z,11.87
2017-12-24T10:53:41.760Z,12.37
2017-12-24T10:56:10.970Z,10.50
2017-12-24T10:58:39.476Z,13.40
2017-12-24T11:01:08.677Z,12.43
2017-12-24T11:03:36.800Z,14.80
2017-12-24T11:06:04.666Z,13.70
2017-12-24T11:08:32.737Z,14.57
2017-12-24T11:11:00.613Z,15.50
2017-12-24T11:13:28.447Z,14.87
2017-12-24T11:15:56.306Z,15.63
2017-12-24T11:18:24.132Z,15.13
2017-12-24T11:20:52.787Z,14.33
2017-12-24T11:23:20.612Z,16.10
2017-12-24T11:25:48.519Z,15.27
2017-12-24T11:28:16.392Z,16.03
2017-12-24T11:30:44.254Z,15.80
2017-12-24T11:33:12.433Z,15.87
2017-12-24T11:35:40.496Z,17.07
2017-12-24T11:38:09.018Z,16.07
2017-12-24T11:40:39.607Z,15.40
2017-12-24T11:43:07.914Z,17.37
2017-12-24T11:45:36.060Z,16.53
2017-12-24T11:48:07.006Z,15.57
2017-12-24T11:53:13.288Z,16.37
2017-12-24T11:55:41.601Z,15.10
2017-12-24T11:58:09.676Z,15.27
2017-12-24T12:00:38.459Z,15.43
2017-12-24T12:03:06.362Z,15.27
2017-12-24T12:05:34.189Z,16.03
2017-12-24T12:08:02.010Z,14.63
2017-12-24T12:10:29.908Z,14.87
2017-12-24T12:12:57.765Z,17.60
2017-12-24T12:15:37.493Z,16.57
2017-12-24T12:18:20.618Z,16.57
2017-12-24T12:23:44.149Z,14.80
2017-12-24T12:26:12.108Z,16.00
2017-12-24T12:28:40.083Z,16.13
2017-12-24T12:31:08.168Z,16.07
2017-12-24T12:33:42.576Z,15.87
2017-12-24T12:36:13.311Z,16.30
2017-12-24T12:38:42.057Z,16.37
2017-12-24T12:41:11.370Z,16.07
2017-12-24T12:43:39.199Z,17.07
2017-12-24T12:46:10.798Z,16.17
2017-12-24T12:48:38.664Z,16.00
2017-12-24T12:51:06.555Z,16.47
2017-12-24T12:53:38.877Z,17.53
2017-12-24T12:56:11.403Z,16.97
2017-12-24T13:03:57.953Z,16.93
2017-12-24T13:06:27.353Z,14.93
2017-12-24T13:08:58.048Z,16.17
2017-12-24T13:11:26.009Z,15.40
2017-12-24T13:13:53.858Z,15.43
2017-12-24T13:16:21.659Z,16.27
2017-12-24T13:18:49.483Z,13.67
2017-12-24T13:21:17.310Z,14.20
2017-12-24T13:23:45.143Z,13.03
2017-12-24T13:26:15.093Z,14.67
2017-12-24T13:28:43.063Z,13.07
2017-12-24T13:31:10.940Z,14.53
2017-12-24T13:33:38.762Z,13.67
2017-12-24T13:36:06.615Z,14.30
2017-12-24T13:38:34.428Z,13.10
2017-12-24T13:41:02.259Z,14.67
2017-12-24T13:43:30.092Z,15.27
2017-12-24T13:45:58.652Z,14.80
2017-12-24T13:48:26.492Z,13.63
2017-12-24T13:50:54.264Z,14.27
2017-12-24T13:53:22.062Z,15.27
2017-12-24T13:55:51.955Z,14.27
2017-12-24T13:58:20.656Z,14.60
2017-12-24T14:00:49.307Z,14.20
2017-12-24T14:03:17.139Z,14.10
2017-12-24T14:05:44.970Z,15.00
2017-12-24T14:08:13.515Z,15.70
2017-12-24T14:10:41.379Z,14.90
2017-12-24T14:13:09.786Z,13.63
2017-12-24T14:15:37.716Z,15.20
2017-12-24T14:18:05.593Z,12.80
2017-12-24T14:20:33.415Z,14.50
2017-12-24T14:23:01.332Z,14.70
2017-12-24T14:25:29.213Z,13.93
2017-12-24T14:27:57.073Z,12.20
2017-12-24T14:30:25.476Z,14.90
2017-12-24T14:32:54.500Z,15.03
2017-12-24T14:35:25.714Z,16.13
2017-12-24T14:37:57.334Z,15.13
2017-12-24T14:40:26.945Z,15.40
2017-12-24T14:42:56.836Z,15.07
2017-12-24T14:45:26.612Z,16.23
2017-12-24T14:47:56.338Z,14.77
2017-12-24T14:50:24.361Z,16.33
2017-12-24T14:52:52.416Z,14.53
2017-12-24T14:55:20.223Z,15.03
2017-12-24T14:57:48.097Z,16.00
2017-12-24T15:00:16.107Z,15.77
2017-12-24T15:02:45.351Z,16.20
2017-12-24T15:05:13.239Z,16.60
2017-12-24T15:07:41.932Z,17.43
2017-12-24T15:10:10.566Z,16.30
2017-12-24T15:12:38.570Z,19.17
2017-12-24T15:15:06.398Z,19.40
2017-12-24T15:17:34.161Z,19.37
2017-12-24T15:20:01.944Z,18.70
2017-12-24T15:22:29.818Z,18.83
2017-12-24T15:24:57.620Z,18.20
2017-12-24T15:27:26.264Z,17.63
2017-12-24T15:29:54.047Z,19.13
2017-12-24T15:32:21.841Z,18.13
2017-12-24T15:34:50.517Z,22.30
2017-12-24T15:37:19.097Z,21.40
2017-12-24T15:39:47.675Z,21.70
2017-12-24T15:42:16.221Z,21.23
2017-12-24T15:44:44.026Z,20.83
2017-12-24T15:47:13.408Z,19.07
2017-12-24T15:49:41.214Z,19.47
2017-12-24T15:52:09.047Z,18.83
2017-12-24T15:54:37.805Z,19.57
2017-12-24T15:57:05.629Z,18.70
2017-12-24T15:59:33.401Z,18.77
2017-12-24T16:02:01.306Z,19.80
2017-12-24T16:04:29.073Z,19.80
2017-12-24T16:06:56.885Z,19.83
2017-12-24T16:09:24.886Z,20.07
2017-12-24T16:11:52.944Z,19.97
2017-12-24T16:14:20.764Z,19.23
2017-12-24T16:16:48.591Z,20.43
2017-12-24T16:19:16.364Z,19.70
2017-12-24T16:21:44.362Z,21.20
2017-12-24T16:24:13.722Z,22.20
2017-12-24T16:26:41.486Z,21.10
2017-12-24T16:29:12.312Z,22.27
2017-12-24T16:31:50.129Z,21.20
2017-12-24T16:34:21.661Z,22.43
2017-12-24T16:36:53.298Z,21.57
2017-12-24T16:39:22.381Z,19.77
2017-12-24T16:41:52.496Z,22.07
2017-12-24T16:44:21.216Z,21.70
2017-12-24T16:46:49.392Z,21.80
2017-12-24T16:49:20.822Z,22.50
2017-12-24T16:51:55.136Z,22.63
2017-12-24T16:54:28.123Z,22.57
2017-12-24T16:56:56.996Z,20.90
2017-12-24T16:59:29.392Z,22.37
2017-12-24T17:02:02.702Z,21.17
2017-12-24T17:04:31.404Z,22.07
2017-12-24T17:07:05.747Z,21.67
2017-12-24T17:09:39.288Z,22.60
2017-12-24T17:12:08.871Z,23.33
2017-12-24T17:14:39.857Z,24.10
2017-12-24T17:17:13.964Z,22.77
2017-12-24T17:19:51.214Z,23.40
2017-12-24T17:22:21.947Z,23.60
2017-12-24T17:24:51.024Z,23.40
2017-12-24T17:27:22.064Z,22.77
2017-12-24T17:29:53.287Z,22.67
2017-12-24T17:32:21.393Z,22.40
2017-12-24T17:34:50.160Z,21.30
2017-12-24T17:37:18.019Z,22.53
2017-12-24T17:39:45.805Z,20.07
2017-12-24T17:42:13.867Z,24.57
2017-12-24T17:44:41.671Z,21.33
2017-12-24T17:47:09.586Z,21.50
2017-12-24T17:49:37.426Z,20.87
2017-12-24T17:52:05.290Z,21.47
2017-12-24T17:54:33.112Z,22.67
2017-12-24T17:57:01.744Z,24.47
2017-12-24T17:59:29.610Z,21.57
2017-12-24T18:01:57.516Z,22.03
2017-12-24T18:04:25.269Z,22.60
2017-12-24T18:06:53.154Z,24.13
2017-12-24T18:09:21.822Z,23.80
2017-12-24T18:11:49.794Z,23.90
2017-12-24T18:14:17.629Z,23.50
2017-12-24T18:16:45.518Z,23.90
2017-12-24T18:19:13.370Z,24.20
2017-12-24T18:21:41.179Z,24.40
2017-12-24T18:24:09.788Z,25.47
2017-12-24T18:26:37.568Z,23.30
2017-12-24T18:29:05.321Z,24.97
2017-12-24T18:31:33.093Z,26.10
2017-12-24T18:34:00.955Z,27.00
2017-12-24T18:36:28.814Z,25.50
2017-12-24T18:38:58.016Z,25.67
2017-12-24T18:41:30.289Z,24.67
2017-12-24T18:43:58.786Z,23.80
2017-12-24T18:46:27.404Z,24.57
2017-12-24T18:48:56.574Z,23.67
2017-12-24T18:51:25.345Z,28.70
2017-12-24T18:53:53.673Z,22.80
2017-12-24T18:56:21.684Z,20.37
2017-12-24T18:58:50.910Z,19.73
2017-12-24T19:01:21.342Z,19.40
2017-12-24T19:03:49.534Z,20.60
2017-12-24T19:06:17.304Z,24.73
2017-12-24T19:08:45.885Z,21.23
2017-12-24T19:11:14.724Z,23.65
2017-12-24T19:13:42.570Z,25.97
2017-12-24T19:16:10.345Z,24.47
2017-12-24T19:18:38.139Z,24.00
2017-12-24T19:21:06.816Z,24.90
2017-12-24T19:23:34.625Z,28.77
2017-12-24T19:26:02.410Z,28.30
2017-12-24T19:28:30.950Z,29.37
2017-12-24T19:30:59.645Z,36.30
2017-12-24T19:33:27.449Z,42.27
2017-12-24T19:35:56.057Z,52.37
2017-12-24T19:38:23.913Z,40.60
2017-12-24T19:40:53.027Z,28.73
2017-12-24T19:43:21.088Z,36.50
2017-12-24T19:45:49.396Z,47.43
2017-12-24T19:48:18.826Z,77.00
2017-12-24T19:50:49.103Z,30.00
2017-12-24T19:53:16.997Z,26.97
2017-12-24T19:55:47.181Z,26.47
2017-12-24T19:58:15.743Z,27.30
2017-12-24T20:00:46.191Z,25.50
2017-12-24T20:03:14.742Z,25.57
2017-12-24T20:05:43.208Z,23.53
2017-12-24T20:08:13.252Z,24.67
2017-12-24T20:10:43.268Z,22.77
2017-12-24T20:13:12.238Z,21.97
2017-12-24T20:15:41.720Z,21.10
2017-12-24T20:18:12.728Z,20.43
2017-12-24T20:20:41.306Z,20.30
2017-12-24T20:23:09.196Z,21.57
2017-12-24T20:25:37.812Z,21.17
2017-12-24T20:28:05.781Z,21.40
2017-12-24T20:30:33.683Z,23.70
2017-12-24T20:33:01.522Z,24.77
2017-12-24T20:35:30.102Z,20.50
2017-12-24T20:37:58.715Z,23.30
2017-12-24T20:40:26.512Z,21.67
2017-12-24T20:42:54.331Z,20.60
2017-12-24T20:45:22.871Z,21.00
2017-12-24T20:47:50.674Z,19.13
2017-12-24T20:50:19.239Z,18.67
2017-12-24T20:52:47.085Z,20.03
2017-12-24T20:55:14.982Z,17.50
2017-12-24T20:57:43.602Z,18.97
2017-12-24T21:00:11.422Z,19.03
2017-12-24T21:02:39.272Z,20.50
2017-12-24T21:05:07.213Z,21.63
2017-12-24T21:07:35.051Z,22.30
2017-12-24T21:10:02.848Z,23.60
2017-12-24T21:12:30.725Z,25.10
2017-12-24T21:14:58.496Z,22.07
2017-12-24T21:17:26.471Z,22.57
2017-12-24T21:19:55.447Z,25.37
2017-12-24T21:22:23.290Z,26.93
2017-12-24T21:24:51.134Z,20.47
2017-12-24T21:27:19.034Z,22.33
2017-12-24T21:29:46.887Z,20.77
2017-12-24T21:32:14.707Z,19.30
2017-12-24T21:34:42.536Z,19.27
2017-12-24T21:37:10.973Z,16.47
2017-12-24T21:39:38.822Z,16.20
2017-12-24T21:42:06.781Z,14.73
2017-12-24T21:44:39.554Z,17.53
2017-12-24T21:47:07.340Z,18.50
2017-12-24T21:49:35.861Z,14.83
2017-12-24T21:52:03.646Z,13.97
2017-12-24T21:54:31.511Z,14.00
2017-12-24T21:56:59.286Z,14.17
2017-12-24T21:59:27.201Z,12.20
2017-12-24T22:01:55.046Z,13.23
2017-12-24T22:04:22.908Z,12.37
2017-12-24T22:06:50.762Z,11.90
2017-12-24T22:09:19.236Z,11.20
2017-12-24T22:11:47.114Z,11.20
2017-12-24T22:14:14.938Z,11.17
2017-12-24T22:16:42.729Z,10.60
2017-12-24T22:19:10.554Z,9.60
2017-12-24T22:21:38.341Z,9.70
2017-12-24T22:24:08.127Z,9.73
2017-12-24T22:26:35.945Z,10.23
2017-12-24T22:29:03.772Z,10.20
2017-12-24T22:31:31.574Z,9.70
